Chennai International Airport
VOMM : now visible

Airfield :











YOU CAN JOIN US ON...

 
LOGIN :

Register | Disclaimer

   EN    FR    IT 

 









Legend :    VFR   Marginal VFR   IFR   Intensive IFR   Very Intensive IFR
Visi :
Ceiling :
>= 8 km
>= 3000ft
5 to 8 km
1000 to 3000 ft
1500m to 5 km
500 to 1000 ft
800 to 1500m
200 to 500 ft
< 800m
< 200 ft
Symbols :   Thunderstorms  Fog  Heavy snow  Heavy precipitations  Wind > 20 kt







- Airport Elevation : 52 ft
- IATA code : MAA


VOMM - Chennai International

CURRENT METAR :
  • 201130Z 10008KT 7000 FEW020 30/23 Q1014 NOSIG

EXPIRED METARs :
  • 201100Z 09010KT 8000 FEW020 31/22 Q1014 NOSIG
  • 201030Z 08010KT 8000 SCT020 31/22 Q1014 NOSIG
  • 201000Z 07010KT 8000 SCT020 31/22 Q1014 NOSIG
  • 200930Z 08010KT 8000 SCT020 32/22 Q1014 NOSIG
  • 200900Z 07010KT 8000 SCT020 32/21 Q1014 NOSIG

TAF TAF VOMM
Valid from the 20 at 12:00 until the 21 at 18:00 UTC


201100Z 2012/2118 11010KT 6000 FEW020
BECMG 2100/2101 00000KT 5000 HZ
TEMPO 2100/2103 3000 BR
BECMG 2105/2106 09010KT 6000
VOMF FIR / Asia



MET'MAP, your aeronautical weather chart ! - Copyright ORBIFLY December 2007 - Disclaimer

ORBIFLY MET'MAP TEAM :

Programming & Development : Alexandra Zaïnal
Concept & Development : Baudouin d'Aumeries
Co-Development & Prog : Marc-Olivier Méhu
Technical & hardware support : Manuel Goepfert

Contact : metmap@orbifly.com




SOURCES & CREDITS :

   NOAA       Earth
Advisory